Air Navigation Services of Czech Republic
Airport: LKTB Updated:  03.10.2022 11:42:31  UTC
 SPECI LKTB 03.10. 11:41 ...
SPECI LKTB 031141Z 30013G24KT 9999 BKN039 14/06 Q1020=
 TAF LKTB 03.10. 11:00 ...
TAF LKTB 031100Z 0312/0418 29012KT CAVOK      TEMPO 0312/0318 32015G30KT      PROB30 TEMPO 0312/0412 9999 -SHRA BKN025=